Terminal Aerodrome Forecast
Issued by NWS

Home | Current Version | Previous Version | Text Only | Print | Product List | Glossary On
Versions: 1 2 3 4 5 6 7 8 9 10 11 12 13 14 15 16
000
FTUS42 KTBW 222300
TAFPIE
TAF
KPIE 222326Z 2300/2324 18010KT P6SM FEW040 BKN250
     FM230600 17006KT 3SM BR FEW008 BKN040
     FM230900 17004KT 2SM BR SCT003 BKN012
     FM231500 15009KT 6SM BR SCT010 BKN035=

USA.gov is the U.S. government's official web portal to all federal, state and local government web resources and services.